sensor_id;sensor_type;location;lat;lon;timestamp;pressure;altitude;pressure_sealevel;temperature;humidity
30516;BME280;17297;54.022;10.760;2023-04-28T00:01:52;101902.09;;;8.29;53.19
30516;BME280;17297;54.022;10.760;2023-04-28T00:04:17;101898.72;;;8.27;53.32
30516;BME280;17297;54.022;10.760;2023-04-28T00:06:42;101893.47;;;8.25;53.34
30516;BME280;17297;54.022;10.760;2023-04-28T00:09:08;101893.66;;;8.24;53.43
30516;BME280;17297;54.022;10.760;2023-04-28T00:11:36;101889.28;;;8.23;53.47
30516;BME280;17297;54.022;10.760;2023-04-28T00:14:03;101887.75;;;8.20;53.38
30516;BME280;17297;54.022;10.760;2023-04-28T00:16:28;101888.88;;;8.18;53.18
30516;BME280;17297;54.022;10.760;2023-04-28T00:18:53;101884.66;;;8.15;53.37
30516;BME280;17297;54.022;10.760;2023-04-28T00:21:19;101881.31;;;8.13;53.32
30516;BME280;17297;54.022;10.760;2023-04-28T00:23:44;101873.69;;;8.08;53.44
30516;BME280;17297;54.022;10.760;2023-04-28T00:26:10;101873.00;;;8.06;53.39
30516;BME280;17297;54.022;10.760;2023-04-28T00:28:38;101877.97;;;8.01;53.43
30516;BME280;17297;54.022;10.760;2023-04-28T00:31:09;101883.63;;;7.98;53.40
30516;BME280;17297;54.022;10.760;2023-04-28T00:33:37;101879.53;;;7.94;53.35
30516;BME280;17297;54.022;10.760;2023-04-28T00:36:02;101881.69;;;7.91;53.41
30516;BME280;17297;54.022;10.760;2023-04-28T00:38:27;101873.94;;;7.87;53.54
30516;BME280;17297;54.022;10.760;2023-04-28T00:40:53;101869.75;;;7.85;53.59
30516;BME280;17297;54.022;10.760;2023-04-28T00:43:18;101866.34;;;7.83;53.51
30516;BME280;17297;54.022;10.760;2023-04-28T00:45:43;101866.66;;;7.80;53.50
30516;BME280;17297;54.022;10.760;2023-04-28T00:48:09;101858.91;;;7.77;53.44
30516;BME280;17297;54.022;10.760;2023-04-28T00:50:35;101858.19;;;7.75;53.68
30516;BME280;17297;54.022;10.760;2023-04-28T00:53:01;101863.72;;;7.73;53.79
30516;BME280;17297;54.022;10.760;2023-04-28T00:55:26;101860.34;;;7.71;53.82
30516;BME280;17297;54.022;10.760;2023-04-28T00:57:56;101861.34;;;7.70;53.68
30516;BME280;17297;54.022;10.760;2023-04-28T01:00:21;101865.69;;;7.71;53.88
30516;BME280;17297;54.022;10.760;2023-04-28T01:02:49;101862.16;;;7.71;53.82
30516;BME280;17297;54.022;10.760;2023-04-28T01:05:15;101866.53;;;7.72;53.82
30516;BME280;17297;54.022;10.760;2023-04-28T01:07:41;101865.69;;;7.71;53.84
30516;BME280;17297;54.022;10.760;2023-04-28T01:10:08;101860.19;;;7.73;54.07
30516;BME280;17297;54.022;10.760;2023-04-28T01:12:34;101858.19;;;7.75;54.08
30516;BME280;17297;54.022;10.760;2023-04-28T01:14:59;101866.09;;;7.76;53.96
30516;BME280;17297;54.022;10.760;2023-04-28T01:17:26;101864.25;;;7.77;54.10
30516;BME280;17297;54.022;10.760;2023-04-28T01:19:52;101866.09;;;7.76;53.97
30516;BME280;17297;54.022;10.760;2023-04-28T01:22:18;101864.25;;;7.77;54.16
30516;BME280;17297;54.022;10.760;2023-04-28T01:24:44;101860.75;;;7.76;54.20
30516;BME280;17297;54.022;10.760;2023-04-28T01:27:12;101861.59;;;7.77;54.15
30516;BME280;17297;54.022;10.760;2023-04-28T01:29:39;101865.09;;;7.77;54.21
30516;BME280;17297;54.022;10.760;2023-04-28T01:32:05;101861.59;;;7.77;54.13
30516;BME280;17297;54.022;10.760;2023-04-28T01:34:32;101857.22;;;7.76;54.00
30516;BME280;17297;54.022;10.760;2023-04-28T01:36:57;101852.84;;;7.75;54.20
30516;BME280;17297;54.022;10.760;2023-04-28T01:39:22;101849.31;;;7.74;54.14
30516;BME280;17297;54.022;10.760;2023-04-28T01:41:47;101851.16;;;7.74;54.22
30516;BME280;17297;54.022;10.760;2023-04-28T01:44:13;101848.63;;;7.72;54.04
30516;BME280;17297;54.022;10.760;2023-04-28T01:46:39;101848.63;;;7.72;54.22
30516;BME280;17297;54.022;10.760;2023-04-28T01:49:04;101842.59;;;7.70;54.10
30516;BME280;17297;54.022;10.760;2023-04-28T01:51:29;101846.09;;;7.71;54.26
30516;BME280;17297;54.022;10.760;2023-04-28T01:53:55;101845.41;;;7.69;54.27
30516;BME280;17297;54.022;10.760;2023-04-28T01:56:21;101846.53;;;7.66;54.13
30516;BME280;17297;54.022;10.760;2023-04-28T01:58:48;101852.88;;;7.65;54.34
30516;BME280;17297;54.022;10.760;2023-04-28T02:01:13;101852.88;;;7.65;54.36
30516;BME280;17297;54.022;10.760;2023-04-28T02:03:40;101856.84;;;7.61;54.26
30516;BME280;17297;54.022;10.760;2023-04-28T02:06:05;101853.47;;;7.59;54.15
30516;BME280;17297;54.022;10.760;2023-04-28T02:08:30;101853.63;;;7.57;54.17
30516;BME280;17297;54.022;10.760;2023-04-28T02:10:56;101854.75;;;7.55;54.35
30516;BME280;17297;54.022;10.760;2023-04-28T02:13:22;101853.91;;;7.54;54.34
30516;BME280;17297;54.022;10.760;2023-04-28T02:15:47;101848.69;;;7.53;54.43
30516;BME280;17297;54.022;10.760;2023-04-28T02:18:13;101851.53;;;7.51;54.54
30516;BME280;17297;54.022;10.760;2023-04-28T02:20:38;101852.38;;;7.52;54.56
30516;BME280;17297;54.022;10.760;2023-04-28T02:23:06;101848.84;;;7.51;54.50
30516;BME280;17297;54.022;10.760;2023-04-28T02:25:31;101851.53;;;7.51;54.45
30516;BME280;17297;54.022;10.760;2023-04-28T02:27:57;101853.38;;;7.51;54.39
30516;BME280;17297;54.022;10.760;2023-04-28T02:30:24;101852.50;;;7.50;54.44
30516;BME280;17297;54.022;10.760;2023-04-28T02:32:50;101847.16;;;7.50;54.63
30516;BME280;17297;54.022;10.760;2023-04-28T02:35:16;101846.31;;;7.50;54.47
30516;BME280;17297;54.022;10.760;2023-04-28T02:37:41;101842.78;;;7.49;54.50
30516;BME280;17297;54.022;10.760;2023-04-28T02:40:07;101844.63;;;7.49;54.52
30516;BME280;17297;54.022;10.760;2023-04-28T02:42:32;101835.75;;;7.48;54.50
30516;BME280;17297;54.022;10.760;2023-04-28T02:44:58;101834.22;;;7.46;54.58
30516;BME280;17297;54.022;10.760;2023-04-28T02:47:23;101833.38;;;7.45;54.50
30516;BME280;17297;54.022;10.760;2023-04-28T02:49:48;101829.88;;;7.45;54.78
30516;BME280;17297;54.022;10.760;2023-04-28T02:52:14;101830.00;;;7.43;54.71
30516;BME280;17297;54.022;10.760;2023-04-28T02:54:39;101824.81;;;7.42;54.64
30516;BME280;17297;54.022;10.760;2023-04-28T02:57:05;101823.09;;;7.40;54.57
30516;BME280;17297;54.022;10.760;2023-04-28T02:59:31;101817.91;;;7.39;54.77
30516;BME280;17297;54.022;10.760;2023-04-28T03:01:56;101820.56;;;7.39;54.89
30516;BME280;17297;54.022;10.760;2023-04-28T03:04:21;101819.75;;;7.38;54.85
30516;BME280;17297;54.022;10.760;2023-04-28T03:06:48;101814.66;;;7.35;54.92
30516;BME280;17297;54.022;10.760;2023-04-28T03:09:14;101813.81;;;7.35;54.92
30516;BME280;17297;54.022;10.760;2023-04-28T03:11:40;101809.44;;;7.34;54.76
30516;BME280;17297;54.022;10.760;2023-04-28T03:14:06;101805.09;;;7.33;54.79
30516;BME280;17297;54.022;10.760;2023-04-28T03:16:31;101808.63;;;7.33;54.99
30516;BME280;17297;54.022;10.760;2023-04-28T03:18:57;101799.75;;;7.33;54.89
30516;BME280;17297;54.022;10.760;2023-04-28T03:21:24;101799.88;;;7.31;55.07
30516;BME280;17297;54.022;10.760;2023-04-28T03:23:52;101797.19;;;7.31;55.11
30516;BME280;17297;54.022;10.760;2023-04-28T03:26:18;101797.34;;;7.30;55.08
30516;BME280;17297;54.022;10.760;2023-04-28T03:28:43;101792.13;;;7.28;55.06
30516;BME280;17297;54.022;10.760;2023-04-28T03:31:09;101794.81;;;7.28;54.92
30516;BME280;17297;54.022;10.760;2023-04-28T03:33:34;101786.94;;;7.27;54.98
30516;BME280;17297;54.022;10.760;2023-04-28T03:36:00;101793.13;;;7.27;55.04
30516;BME280;17297;54.022;10.760;2023-04-28T03:38:25;101784.41;;;7.25;55.12
30516;BME280;17297;54.022;10.760;2023-04-28T03:40:52;101785.41;;;7.24;55.18
30516;BME280;17297;54.022;10.760;2023-04-28T03:43:30;101778.38;;;7.23;55.04
30516;BME280;17297;54.022;10.760;2023-04-28T03:46:18;101772.16;;;7.23;55.08
30516;BME280;17297;54.022;10.760;2023-04-28T03:48:43;101771.19;;;7.24;55.08
30516;BME280;17297;54.022;10.760;2023-04-28T03:51:10;101769.34;;;7.24;55.19
30516;BME280;17297;54.022;10.760;2023-04-28T03:53:35;101761.31;;;7.24;55.33
30516;BME280;17297;54.022;10.760;2023-04-28T03:56:01;101769.19;;;7.26;55.38
30516;BME280;17297;54.022;10.760;2023-04-28T03:58:26;101754.81;;;7.27;55.46
30516;BME280;17297;54.022;10.760;2023-04-28T04:00:52;101758.03;;;7.30;55.55
30516;BME280;17297;54.022;10.760;2023-04-28T04:03:18;101756.06;;;7.32;55.45
30516;BME280;17297;54.022;10.760;2023-04-28T04:05:47;101757.75;;;7.33;55.34
30516;BME280;17297;54.022;10.760;2023-04-28T04:08:12;101757.59;;;7.35;55.32
30516;BME280;17297;54.022;10.760;2023-04-28T04:10:37;101761.97;;;7.36;55.54
30516;BME280;17297;54.022;10.760;2023-04-28T04:13:03;101759.69;;;7.41;55.39
30516;BME280;17297;54.022;10.760;2023-04-28T04:15:28;101748.09;;;7.50;55.71
30516;BME280;17297;54.022;10.760;2023-04-28T04:17:54;101757.91;;;7.59;55.67
30516;BME280;17297;54.022;10.760;2023-04-28T04:20:21;101753.78;;;7.65;55.47
30516;BME280;17297;54.022;10.760;2023-04-28T04:22:47;101749.97;;;7.68;55.50
30516;BME280;17297;54.022;10.760;2023-04-28T04:25:13;101752.50;;;7.69;55.55
30516;BME280;17297;54.022;10.760;2023-04-28T04:27:39;101754.88;;;7.72;55.65
30516;BME280;17297;54.022;10.760;2023-04-28T04:30:06;101748.38;;;7.75;55.64
30516;BME280;17297;54.022;10.760;2023-04-28T04:32:32;101746.53;;;7.75;55.62
30516;BME280;17297;54.022;10.760;2023-04-28T04:34:58;101744.56;;;7.77;55.50
30516;BME280;17297;54.022;10.760;2023-04-28T04:37:24;101738.19;;;7.78;55.56
30516;BME280;17297;54.022;10.760;2023-04-28T04:40:00;101732.72;;;7.80;55.65
30516;BME280;17297;54.022;10.760;2023-04-28T04:42:31;101735.53;;;7.78;55.70
30516;BME280;17297;54.022;10.760;2023-04-28T04:45:08;101733.72;;;7.79;55.55
30516;BME280;17297;54.022;10.760;2023-04-28T04:47:34;101728.19;;;7.80;55.82
30516;BME280;17297;54.022;10.760;2023-04-28T04:49:59;101732.63;;;7.90;56.59
30516;BME280;17297;54.022;10.760;2023-04-28T04:52:25;101730.41;;;8.03;57.06
30516;BME280;17297;54.022;10.760;2023-04-28T04:54:51;101725.78;;;8.23;57.80
30516;BME280;17297;54.022;10.760;2023-04-28T04:57:16;101721.41;;;8.40;58.03
30516;BME280;17297;54.022;10.760;2023-04-28T05:00:00;101715.84;;;8.59;58.45
30516;BME280;17297;54.022;10.760;2023-04-28T05:02:25;101711.50;;;8.84;58.74
30516;BME280;17297;54.022;10.760;2023-04-28T05:04:51;101718.34;;;9.05;58.97
30516;BME280;17297;54.022;10.760;2023-04-28T05:07:16;101714.94;;;9.29;58.80
30516;BME280;17297;54.022;10.760;2023-04-28T05:09:42;101713.53;;;9.51;58.66
30516;BME280;17297;54.022;10.760;2023-04-28T05:12:07;101716.47;;;9.82;58.65
30516;BME280;17297;54.022;10.760;2023-04-28T05:14:33;101717.34;;;10.15;58.16
30516;BME280;17297;54.022;10.760;2023-04-28T05:16:59;101714.03;;;10.46;58.11
30516;BME280;17297;54.022;10.760;2023-04-28T05:19:30;101705.13;;;10.78;57.77
30516;BME280;17297;54.022;10.760;2023-04-28T05:21:55;101700.66;;;11.09;57.23
30516;BME280;17297;54.022;10.760;2023-04-28T05:24:22;101699.41;;;11.28;56.75
30516;BME280;17297;54.022;10.760;2023-04-28T05:26:49;101703.56;;;11.39;56.36
30516;BME280;17297;54.022;10.760;2023-04-28T05:29:17;101697.34;;;11.39;55.69
30516;BME280;17297;54.022;10.760;2023-04-28T05:31:42;101699.69;;;11.33;55.54
30516;BME280;17297;54.022;10.760;2023-04-28T05:34:08;101690.28;;;11.38;55.52
30516;BME280;17297;54.022;10.760;2023-04-28T05:36:33;101695.25;;;11.49;55.60
30516;BME280;17297;54.022;10.760;2023-04-28T05:38:59;101691.38;;;11.51;55.16
30516;BME280;17297;54.022;10.760;2023-04-28T05:41:24;101702.00;;;11.53;55.14
30516;BME280;17297;54.022;10.760;2023-04-28T05:43:50;101692.28;;;11.44;54.79
30516;BME280;17297;54.022;10.760;2023-04-28T05:46:16;101689.38;;;11.45;54.91
30516;BME280;17297;54.022;10.760;2023-04-28T05:48:41;101685.03;;;11.44;54.58
30516;BME280;17297;54.022;10.760;2023-04-28T05:51:07;101685.88;;;11.37;54.63
30516;BME280;17297;54.022;10.760;2023-04-28T05:53:33;101684.91;;;11.29;54.63
30516;BME280;17297;54.022;10.760;2023-04-28T05:55:58;101687.47;;;11.23;54.75
30516;BME280;17297;54.022;10.760;2023-04-28T05:58:24;101683.59;;;11.25;54.68
30516;BME280;17297;54.022;10.760;2023-04-28T06:00:49;101682.72;;;11.33;54.89
30516;BME280;17297;54.022;10.760;2023-04-28T06:03:16;101685.72;;;11.38;55.00
30516;BME280;17297;54.022;10.760;2023-04-28T06:05:44;101679.53;;;11.61;54.63
30516;BME280;17297;54.022;10.760;2023-04-28T06:08:09;101677.06;;;11.82;54.49
30516;BME280;17297;54.022;10.760;2023-04-28T06:10:35;101675.09;;;11.99;54.25
30516;BME280;17297;54.022;10.760;2023-04-28T06:13:01;101673.06;;;12.24;54.14
30516;BME280;17297;54.022;10.760;2023-04-28T06:15:29;101667.25;;;12.35;53.58
30516;BME280;17297;54.022;10.760;2023-04-28T06:17:55;101670.78;;;12.36;53.37
30516;BME280;17297;54.022;10.760;2023-04-28T06:20:20;101667.25;;;12.35;53.04
30516;BME280;17297;54.022;10.760;2023-04-28T06:22:45;101673.84;;;12.33;53.17
30516;BME280;17297;54.022;10.760;2023-04-28T06:25:11;101665.25;;;12.29;53.16
30516;BME280;17297;54.022;10.760;2023-04-28T06:27:46;101648.91;;;12.31;53.48
30516;BME280;17297;54.022;10.760;2023-04-28T06:30:18;101657.63;;;12.56;53.26
30516;BME280;17297;54.022;10.760;2023-04-28T06:32:46;101657.34;;;12.80;52.01
30516;BME280;17297;54.022;10.760;2023-04-28T06:35:12;101651.69;;;12.90;51.64
30516;BME280;17297;54.022;10.760;2023-04-28T06:37:37;101651.41;;;13.00;51.67
30516;BME280;17297;54.022;10.760;2023-04-28T06:40:03;101651.66;;;13.20;51.46
30516;BME280;17297;54.022;10.760;2023-04-28T06:42:28;101651.28;;;13.37;50.80
30516;BME280;17297;54.022;10.760;2023-04-28T06:44:59;101645.84;;;13.52;50.60
30516;BME280;17297;54.022;10.760;2023-04-28T06:47:26;101644.34;;;13.65;50.46
30516;BME280;17297;54.022;10.760;2023-04-28T06:49:51;101650.69;;;13.78;49.86
30516;BME280;17297;54.022;10.760;2023-04-28T06:52:18;101647.34;;;13.98;49.67
30516;BME280;17297;54.022;10.760;2023-04-28T06:54:45;101640.88;;;14.20;49.11
30516;BME280;17297;54.022;10.760;2023-04-28T06:57:11;101631.50;;;14.44;48.84
30516;BME280;17297;54.022;10.760;2023-04-28T06:59:36;101634.81;;;14.61;48.37
30516;BME280;17297;54.022;10.760;2023-04-28T07:02:02;101638.59;;;14.73;48.18
30516;BME280;17297;54.022;10.760;2023-04-28T07:04:27;101637.88;;;14.86;47.88
30516;BME280;17297;54.022;10.760;2023-04-28T07:06:53;101626.72;;;15.09;47.84
30516;BME280;17297;54.022;10.760;2023-04-28T07:09:18;101637.25;;;15.39;47.22
30516;BME280;17297;54.022;10.760;2023-04-28T07:11:44;101625.03;;;15.63;46.64
30516;BME280;17297;54.022;10.760;2023-04-28T07:14:09;101625.94;;;15.77;46.15
30516;BME280;17297;54.022;10.760;2023-04-28T07:16:35;101628.66;;;15.70;45.93
30516;BME280;17297;54.022;10.760;2023-04-28T07:19:01;101627.06;;;15.47;45.61
30516;BME280;17297;54.022;10.760;2023-04-28T07:21:26;101625.91;;;15.09;45.69
30516;BME280;17297;54.022;10.760;2023-04-28T07:23:52;101624.00;;;14.68;46.18
30516;BME280;17297;54.022;10.760;2023-04-28T07:26:24;101629.34;;;14.33;46.64
30516;BME280;17297;54.022;10.760;2023-04-28T07:28:49;101630.34;;;14.04;46.99
30516;BME280;17297;54.022;10.760;2023-04-28T07:31:15;101630.94;;;13.78;47.05
30516;BME280;17297;54.022;10.760;2023-04-28T07:33:41;101627.84;;;13.59;47.94
30516;BME280;17297;54.022;10.760;2023-04-28T07:36:06;101625.63;;;13.48;48.89
30516;BME280;17297;54.022;10.760;2023-04-28T07:38:35;101631.72;;;13.35;49.53
30516;BME280;17297;54.022;10.760;2023-04-28T07:41:01;101627.44;;;13.26;49.88
30516;BME280;17297;54.022;10.760;2023-04-28T07:43:27;101628.38;;;13.18;50.12
30516;BME280;17297;54.022;10.760;2023-04-28T07:45:53;101627.44;;;13.11;50.15
30516;BME280;17297;54.022;10.760;2023-04-28T07:48:18;101626.34;;;13.06;50.50
30516;BME280;17297;54.022;10.760;2023-04-28T07:50:43;101623.94;;;12.96;50.40
30516;BME280;17297;54.022;10.760;2023-04-28T07:53:09;101621.13;;;12.89;50.28
30516;BME280;17297;54.022;10.760;2023-04-28T07:55:34;101618.31;;;12.83;50.25
30516;BME280;17297;54.022;10.760;2023-04-28T07:57:59;101615.38;;;12.78;51.00
30516;BME280;17297;54.022;10.760;2023-04-28T08:00:25;101616.19;;;12.78;51.86
30516;BME280;17297;54.022;10.760;2023-04-28T08:02:50;101619.00;;;12.85;52.71
30516;BME280;17297;54.022;10.760;2023-04-28T08:05:16;101620.66;;;12.86;52.96
30516;BME280;17297;54.022;10.760;2023-04-28T08:07:41;101611.25;;;12.82;52.67
30516;BME280;17297;54.022;10.760;2023-04-28T08:10:09;101606.59;;;12.76;53.17
30516;BME280;17297;54.022;10.760;2023-04-28T08:12:35;101606.97;;;12.73;53.27
30516;BME280;17297;54.022;10.760;2023-04-28T08:15:00;101606.69;;;12.67;53.51
30516;BME280;17297;54.022;10.760;2023-04-28T08:17:26;101608.47;;;12.60;53.77
30516;BME280;17297;54.022;10.760;2023-04-28T08:19:51;101610.69;;;12.57;53.86
30516;BME280;17297;54.022;10.760;2023-04-28T08:22:16;101606.03;;;12.51;54.39
30516;BME280;17297;54.022;10.760;2023-04-28T08:24:42;101604.38;;;12.50;54.30
30516;BME280;17297;54.022;10.760;2023-04-28T08:27:07;101605.22;;;12.50;54.43
30516;BME280;17297;54.022;10.760;2023-04-28T08:29:33;101601.84;;;12.48;54.48
30516;BME280;17297;54.022;10.760;2023-04-28T08:31:58;101598.69;;;12.44;54.84
30516;BME280;17297;54.022;10.760;2023-04-28T08:34:25;101603.03;;;12.45;54.73
30516;BME280;17297;54.022;10.760;2023-04-28T08:36:51;101598.69;;;12.44;54.66
30516;BME280;17297;54.022;10.760;2023-04-28T08:39:17;101599.72;;;12.43;54.89
30516;BME280;17297;54.022;10.760;2023-04-28T08:41:43;101598.22;;;12.41;54.98
30516;BME280;17297;54.022;10.760;2023-04-28T08:44:09;101587.44;;;12.41;55.00
30516;BME280;17297;54.022;10.760;2023-04-28T08:46:42;101581.72;;;12.36;55.39
30516;BME280;17297;54.022;10.760;2023-04-28T08:49:12;101587.69;;;12.31;55.67
30516;BME280;17297;54.022;10.760;2023-04-28T08:51:44;101584.34;;;12.29;55.93
30516;BME280;17297;54.022;10.760;2023-04-28T08:54:13;101576.59;;;12.26;55.82
30516;BME280;17297;54.022;10.760;2023-04-28T08:56:41;101571.13;;;12.19;56.03
30516;BME280;17297;54.022;10.760;2023-04-28T08:59:09;101574.63;;;12.20;56.34
30516;BME280;17297;54.022;10.760;2023-04-28T09:01:35;101570.75;;;12.22;56.69
30516;BME280;17297;54.022;10.760;2023-04-28T09:04:01;101567.84;;;12.24;56.54
30516;BME280;17297;54.022;10.760;2023-04-28T09:06:31;101565.81;;;12.26;56.58
30516;BME280;17297;54.022;10.760;2023-04-28T09:09:17;101560.63;;;12.24;57.13
30516;BME280;17297;54.022;10.760;2023-04-28T09:11:55;101557.63;;;12.19;56.92
30516;BME280;17297;54.022;10.760;2023-04-28T09:14:24;101558.66;;;12.18;56.66
30516;BME280;17297;54.022;10.760;2023-04-28T09:16:49;101559.50;;;12.19;56.74
30516;BME280;17297;54.022;10.760;2023-04-28T09:19:16;101556.13;;;12.17;56.72
30516;BME280;17297;54.022;10.760;2023-04-28T09:21:50;101557.78;;;12.18;57.18
30516;BME280;17297;54.022;10.760;2023-04-28T09:26:55;101551.97;;;12.29;56.81
30516;BME280;17297;54.022;10.760;2023-04-28T09:29:20;101552.25;;;12.34;56.83
30516;BME280;17297;54.022;10.760;2023-04-28T09:31:46;101545.66;;;12.37;56.88
30516;BME280;17297;54.022;10.760;2023-04-28T09:34:11;101539.88;;;12.40;56.76
30516;BME280;17297;54.022;10.760;2023-04-28T09:36:37;101530.56;;;12.42;56.79
30516;BME280;17297;54.022;10.760;2023-04-28T09:39:02;101535.97;;;12.42;56.67
30516;BME280;17297;54.022;10.760;2023-04-28T09:41:39;101532.78;;;12.39;56.86
30516;BME280;17297;54.022;10.760;2023-04-28T09:44:18;101527.78;;;12.36;56.94
30516;BME280;17297;54.022;10.760;2023-04-28T09:46:46;101519.22;;;12.32;56.59
30516;BME280;17297;54.022;10.760;2023-04-28T09:49:12;101525.28;;;12.34;56.53
30516;BME280;17297;54.022;10.760;2023-04-28T09:51:38;101526.66;;;12.30;56.92
30516;BME280;17297;54.022;10.760;2023-04-28T09:54:04;101520.63;;;12.28;56.91
30516;BME280;17297;54.022;10.760;2023-04-28T09:56:31;101518.09;;;12.27;56.77
30516;BME280;17297;54.022;10.760;2023-04-28T09:58:59;101509.38;;;12.24;56.99
30516;BME280;17297;54.022;10.760;2023-04-28T10:01:26;101503.78;;;12.26;57.20
30516;BME280;17297;54.022;10.760;2023-04-28T10:03:53;101509.47;;;12.31;57.29
30516;BME280;17297;54.022;10.760;2023-04-28T10:06:21;101504.91;;;12.32;57.34
30516;BME280;17297;54.022;10.760;2023-04-28T10:08:47;101500.78;;;12.36;57.47
30516;BME280;17297;54.022;10.760;2023-04-28T10:11:14;101497.19;;;12.43;57.27
30516;BME280;17297;54.022;10.760;2023-04-28T10:13:41;101485.81;;;12.48;57.58
30516;BME280;17297;54.022;10.760;2023-04-28T10:16:11;101498.09;;;12.51;57.33
30516;BME280;17297;54.022;10.760;2023-04-28T10:18:37;101488.34;;;12.50;57.30
30516;BME280;17297;54.022;10.760;2023-04-28T10:21:04;101481.31;;;12.55;57.35
30516;BME280;17297;54.022;10.760;2023-04-28T10:26:13;101473.44;;;12.54;57.42
30516;BME280;17297;54.022;10.760;2023-04-28T10:28:47;101481.53;;;12.54;57.55
30516;BME280;17297;54.022;10.760;2023-04-28T10:31:19;101464.03;;;12.50;57.77
30516;BME280;17297;54.022;10.760;2023-04-28T10:33:45;101464.41;;;12.46;57.35
30516;BME280;17297;54.022;10.760;2023-04-28T10:36:47;101463.75;;;12.44;57.47
30516;BME280;17297;54.022;10.760;2023-04-28T10:39:17;101454.47;;;12.47;57.42
30516;BME280;17297;54.022;10.760;2023-04-28T10:41:44;101452.50;;;12.41;57.47
30516;BME280;17297;54.022;10.760;2023-04-28T10:47:05;101445.25;;;12.41;57.86
30516;BME280;17297;54.022;10.760;2023-04-28T11:00:42;101436.78;;;12.44;57.35
30516;BME280;17297;54.022;10.760;2023-04-28T11:03:07;101427.47;;;12.47;57.44
30516;BME280;17297;54.022;10.760;2023-04-28T11:05:33;101428.59;;;12.53;57.64
30516;BME280;17297;54.022;10.760;2023-04-28T11:13:38;101427.06;;;12.65;57.64
30516;BME280;17297;54.022;10.760;2023-04-28T11:16:04;101426.03;;;12.66;57.84
30516;BME280;17297;54.022;10.760;2023-04-28T11:18:47;101424.81;;;12.68;57.76
30516;BME280;17297;54.022;10.760;2023-04-28T11:21:13;101422.56;;;12.72;57.65
30516;BME280;17297;54.022;10.760;2023-04-28T11:23:39;101415.97;;;12.75;57.79
30516;BME280;17297;54.022;10.760;2023-04-28T11:26:05;101417.19;;;12.72;57.66
30516;BME280;17297;54.022;10.760;2023-04-28T11:28:30;101409.91;;;12.73;57.62
30516;BME280;17297;54.022;10.760;2023-04-28T11:31:15;101412.44;;;12.74;57.59
30516;BME280;17297;54.022;10.760;2023-04-28T11:33:58;101409.31;;;12.77;57.79
30516;BME280;17297;54.022;10.760;2023-04-28T11:36:37;101408.94;;;12.80;58.47
30516;BME280;17297;54.022;10.760;2023-04-28T11:39:03;101412.69;;;12.79;58.38
30516;BME280;17297;54.022;10.760;2023-04-28T11:41:31;101411.19;;;12.77;58.33
30516;BME280;17297;54.022;10.760;2023-04-28T11:43:58;101407.66;;;12.76;58.75
30516;BME280;17297;54.022;10.760;2023-04-28T11:46:24;101409.53;;;12.76;58.81
30516;BME280;17297;54.022;10.760;2023-04-28T11:49:03;101409.31;;;12.77;59.28
30516;BME280;17297;54.022;10.760;2023-04-28T11:51:30;101391.28;;;12.78;59.13
30516;BME280;17297;54.022;10.760;2023-04-28T11:53:56;101397.69;;;12.77;59.03
30516;BME280;17297;54.022;10.760;2023-04-28T11:56:22;101395.59;;;12.72;59.27
30516;BME280;17297;54.022;10.760;2023-04-28T11:59:02;101392.69;;;12.74;59.14
30516;BME280;17297;54.022;10.760;2023-04-28T12:01:28;101384.19;;;12.77;59.09
30516;BME280;17297;54.022;10.760;2023-04-28T12:03:54;101376.47;;;12.74;59.29
30516;BME280;17297;54.022;10.760;2023-04-28T12:06:20;101381.69;;;12.75;59.23
30516;BME280;17297;54.022;10.760;2023-04-28T12:08:45;101385.03;;;12.77;59.49
30516;BME280;17297;54.022;10.760;2023-04-28T12:11:12;101377.34;;;12.74;59.80
30516;BME280;17297;54.022;10.760;2023-04-28T12:13:38;101369.69;;;12.78;59.90
30516;BME280;17297;54.022;10.760;2023-04-28T12:16:05;101368.44;;;12.80;59.88
30516;BME280;17297;54.022;10.760;2023-04-28T12:18:32;101365.75;;;12.80;59.97
30516;BME280;17297;54.022;10.760;2023-04-28T12:20:58;101361.81;;;12.83;60.11
30516;BME280;17297;54.022;10.760;2023-04-28T12:23:34;101359.56;;;12.86;60.06
30516;BME280;17297;54.022;10.760;2023-04-28T12:26:01;101361.25;;;12.87;60.03
30516;BME280;17297;54.022;10.760;2023-04-28T12:28:37;101353.41;;;12.92;60.31
30516;BME280;17297;54.022;10.760;2023-04-28T12:31:04;101352.84;;;12.97;60.15
30516;BME280;17297;54.022;10.760;2023-04-28T12:33:30;101350.41;;;13.02;59.89
30516;BME280;17297;54.022;10.760;2023-04-28T12:35:58;101349.63;;;13.08;60.19
30516;BME280;17297;54.022;10.760;2023-04-28T12:38:24;101347.31;;;13.05;60.34
30516;BME280;17297;54.022;10.760;2023-04-28T12:40:50;101339.97;;;12.99;60.02
30516;BME280;17297;54.022;10.760;2023-04-28T12:43:16;101351.16;;;12.96;59.74
30516;BME280;17297;54.022;10.760;2023-04-28T12:45:41;101336.19;;;12.93;60.13
30516;BME280;17297;54.022;10.760;2023-04-28T12:48:07;101349.03;;;12.91;60.13
30516;BME280;17297;54.022;10.760;2023-04-28T12:50:32;101343.38;;;12.86;60.28
30516;BME280;17297;54.022;10.760;2023-04-28T12:52:58;101340.88;;;12.85;60.24
30516;BME280;17297;54.022;10.760;2023-04-28T12:55:24;101337.53;;;12.83;60.14
30516;BME280;17297;54.022;10.760;2023-04-28T12:57:49;101334.81;;;12.83;60.49
30516;BME280;17297;54.022;10.760;2023-04-28T13:00:15;101332.34;;;12.81;60.68
30516;BME280;17297;54.022;10.760;2023-04-28T13:02:41;101336.44;;;12.77;60.75
30516;BME280;17297;54.022;10.760;2023-04-28T13:05:06;101325.84;;;12.76;60.75
30516;BME280;17297;54.022;10.760;2023-04-28T13:07:33;101333.50;;;12.72;60.73